Fort McNair, District of Columbia
Current Conditions -  °F | °C
As of 6:52 PM on Friday 19 Dec 2014 (Local Time) from KDCA Reporting Station
Clear Clear  
Wind Chill: 32°   Ceiling: Unl
Heat Index: 39°   Visibility: 10mi
Dew Point: 22°   Wind: 10mph
Humidity: 50%   Direction: 320°NW
Pressure: 30.22"   Gusts: NA
Location:  38.878°N, 77.0198°W
Report Text: KDCA 192352Z 32009KT 10SM CLR 04/M06 A3022 RMK AO2 SLP233 T00391056 10061 20039 51019
Loading
Personal Weather Stations






























Interactive Weather Map New forecast layout! Learn more

10-Day Weather Forecast

Advertisements
Track Severe Weather on mobile